PWSweather.com
Personal Weather Stations
Station Observations
KMICHEBO10
Cordwood Point, Lake Huron, Cheboygan, MI 49721

Cordwood Point, Lake HuronCheboygan, MI 49721

Lat: 45.663372, Lon: -84.3327789

Elevation: 584

Station Type: Davis Vantage Pro2 Wireless

www.lakehuronweather.org

High Low Average
Temperature 69.2°F20.7°C 55.8°F13.2°C 61.1°F16.2°C
Dew Point 63.7°F17.6°C 51.8°F11.0°C 56.6°F13.7°C
Winds 5.8 mph 9.3 kmh Calm Calm 1.0 mph SSW1.6 kmh SSW
Wind Gusts 12.7 mph20.4 kmh -- 2.0 mph3.2 kmh
Humidity 97% 64% 86%
Pressure 29.86 in1011.2 mb 29.64 in1003.7 mb -
Precipitation 0.25 in6.4 mm - -
Hour Temp Dew Point Humidity Winds Wind Gusts Pressure Precip Precip Rate Daily Precip Total
12:00 AM 55.1°F12.8°C 52.2°F11.2°C 90% Calm Calm -- 29.77 in1008.1 mb - 0.00 in0.0 mm 0.00 in0.0 mm
12:10 AM 55.3°F12.9°C 52.4°F11.3°C 90% Calm Calm -- 29.77 in1008.1 mb - 0.00 in0.0 mm 0.00 in0.0 mm
12:20 AM 55.5°F13.1°C 52.6°F11.4°C 90% Calm Calm -- 29.77 in1008.1 mb - 0.00 in0.0 mm 0.00 in0.0 mm
12:30 AM 55.7°F13.2°C 52.8°F11.6°C 90% Calm Calm -- 29.77 in1008.1 mb - 0.00 in0.0 mm 0.00 in0.0 mm
12:40 AM 55.9°F13.3°C 53.0°F11.7°C 90% Calm Calm -- 29.77 in1008.1 mb - 0.00 in0.0 mm 0.00 in0.0 mm
12:50 AM 56.0°F13.3°C 53.1°F11.7°C 90% Calm Calm -- 29.76 in1007.8 mb - 0.00 in0.0 mm 0.00 in0.0 mm
01:00 AM 55.9°F13.3°C 53.0°F11.7°C 90% Calm Calm -- 29.77 in1008.1 mb - 0.00 in0.0 mm 0.00 in0.0 mm
01:10 AM 55.9°F13.3°C 53.0°F11.7°C 90% Calm Calm 1.2 mph1.9 kmh 29.77 in1008.1 mb - 0.00 in0.0 mm 0.00 in0.0 mm
01:20 AM 55.9°F13.3°C 53.3°F11.8°C 91% Calm Calm -- 29.76 in1007.8 mb - 0.00 in0.0 mm 0.00 in0.0 mm
01:30 AM 55.8°F13.2°C 53.2°F11.8°C 91% Calm Calm -- 29.75 in1007.5 mb - 0.00 in0.0 mm 0.00 in0.0 mm
01:40 AM 55.8°F13.2°C 53.2°F11.8°C 91% Calm Calm -- 29.75 in1007.5 mb - 0.00 in0.0 mm 0.00 in0.0 mm
01:50 AM 55.9°F13.3°C 53.3°F11.8°C 91% Calm Calm -- 29.75 in1007.5 mb - 0.00 in0.0 mm 0.00 in0.0 mm
02:00 AM 56.0°F13.3°C 53.4°F11.9°C 91% Calm Calm -- 29.75 in1007.5 mb - 0.00 in0.0 mm 0.00 in0.0 mm
02:10 AM 56.0°F13.3°C 53.4°F11.9°C 91% Calm Calm -- 29.75 in1007.5 mb - 0.00 in0.0 mm 0.00 in0.0 mm
02:20 AM 56.1°F13.4°C 53.8°F12.1°C 92% Calm Calm -- 29.75 in1007.5 mb - 0.00 in0.0 mm 0.00 in0.0 mm
02:30 AM 56.1°F13.4°C 53.8°F12.1°C 92% Calm Calm -- 29.74 in1007.1 mb - 0.00 in0.0 mm 0.00 in0.0 mm
02:40 AM 56.1°F13.4°C 53.8°F12.1°C 92% Calm Calm -- 29.74 in1007.1 mb - 0.00 in0.0 mm 0.00 in0.0 mm
02:50 AM 56.3°F13.5°C 54.3°F12.4°C 93% Calm Calm -- 29.74 in1007.1 mb - 0.00 in0.0 mm 0.00 in0.0 mm
03:00 AM 56.5°F13.6°C 54.5°F12.5°C 93% Calm Calm -- 29.74 in1007.1 mb - 0.00 in0.0 mm 0.00 in0.0 mm
03:10 AM 56.9°F13.8°C 54.9°F12.7°C 93% Calm Calm -- 29.74 in1007.1 mb - 0.00 in0.0 mm 0.00 in0.0 mm
03:20 AM 57.0°F13.9°C 55.0°F12.8°C 93% Calm Calm -- 29.73 in1006.8 mb - 0.00 in0.0 mm 0.00 in0.0 mm
03:30 AM 57.2°F14.0°C 55.5°F13.1°C 94% Calm Calm -- 29.73 in1006.8 mb - 0.00 in0.0 mm 0.00 in0.0 mm
03:40 AM 57.4°F14.1°C 55.7°F13.2°C 94% Calm Calm -- 29.72 in1006.4 mb - 0.00 in0.0 mm 0.00 in0.0 mm
03:50 AM 57.5°F14.2°C 56.1°F13.4°C 95% Calm Calm -- 29.72 in1006.4 mb - 0.00 in0.0 mm 0.00 in0.0 mm
04:00 AM 57.6°F14.2°C 56.2°F13.4°C 95% Calm Calm 1.2 mph1.9 kmh 29.71 in1006.1 mb - 0.00 in0.0 mm 0.00 in0.0 mm
04:10 AM 57.8°F14.3°C 56.4°F13.6°C 95% Calm Calm -- 29.71 in1006.1 mb - 0.00 in0.0 mm 0.00 in0.0 mm
04:20 AM 58.0°F14.4°C 56.6°F13.7°C 95% Calm Calm -- 29.69 in1005.4 mb - 0.00 in0.0 mm 0.00 in0.0 mm
04:30 AM 57.8°F14.3°C 56.4°F13.6°C 95% Calm Calm 1.2 mph1.9 kmh 29.69 in1005.4 mb - 0.00 in0.0 mm 0.00 in0.0 mm
04:40 AM 57.9°F14.4°C 56.5°F13.6°C 95% Calm Calm -- 29.69 in1005.4 mb - 0.00 in0.0 mm 0.00 in0.0 mm
04:50 AM 57.9°F14.4°C 56.5°F13.6°C 95% Calm Calm -- 29.69 in1005.4 mb - 0.00 in0.0 mm 0.00 in0.0 mm
05:00 AM 57.9°F14.4°C 56.5°F13.6°C 95% Calm Calm -- 29.68 in1005.1 mb - 0.00 in0.0 mm 0.00 in0.0 mm
05:10 AM 57.9°F14.4°C 56.8°F13.8°C 96% Calm Calm -- 29.68 in1005.1 mb - 0.00 in0.0 mm 0.00 in0.0 mm
05:20 AM 58.0°F14.4°C 56.8°F13.8°C 96% Calm Calm -- 29.68 in1005.1 mb - 0.00 in0.0 mm 0.00 in0.0 mm
05:30 AM 58.1°F14.5°C 57.0°F13.9°C 96% Calm Calm -- 29.68 in1005.1 mb - 0.00 in0.0 mm 0.00 in0.0 mm
05:40 AM 58.1°F14.5°C 57.0°F13.9°C 96% Calm Calm -- 29.68 in1005.1 mb - 0.00 in0.0 mm 0.00 in0.0 mm
05:50 AM 58.1°F14.5°C 57.0°F13.9°C 96% Calm Calm -- 29.68 in1005.1 mb - 0.00 in0.0 mm 0.00 in0.0 mm
06:00 AM 58.2°F14.6°C 57.1°F13.9°C 96% Calm Calm -- 29.67 in1004.7 mb - 0.00 in0.0 mm 0.00 in0.0 mm
06:10 AM 58.2°F14.6°C 57.1°F13.9°C 96% Calm Calm -- 29.67 in1004.7 mb - 0.00 in0.0 mm 0.00 in0.0 mm
06:20 AM 58.2°F14.6°C 57.1°F13.9°C 96% Calm Calm -- 29.66 in1004.4 mb - 0.00 in0.0 mm 0.00 in0.0 mm
06:30 AM 58.3°F14.6°C 57.2°F14.0°C 96% Calm Calm -- 29.66 in1004.4 mb - 0.00 in0.0 mm 0.00 in0.0 mm
06:40 AM 58.5°F14.7°C 57.3°F14.1°C 96% Calm Calm -- 29.66 in1004.4 mb - 0.00 in0.0 mm 0.00 in0.0 mm
06:50 AM 58.7°F14.8°C 57.9°F14.4°C 97% Calm Calm -- 29.65 in1004.1 mb - 0.00 in0.0 mm 0.00 in0.0 mm
07:00 AM 59.0°F15.0°C 58.2°F14.6°C 97% Calm Calm -- 29.65 in1004.1 mb - 0.00 in0.0 mm 0.00 in0.0 mm
07:10 AM 59.1°F15.1°C 58.0°F14.4°C 96% 1.2 mph NNW1.9 kmh NNW 1.2 mph1.9 kmh 29.67 in1004.7 mb - 0.00 in0.0 mm 0.00 in0.0 mm
07:20 AM 58.2°F14.6°C 56.8°F13.8°C 95% Calm Calm 2.3 mph3.7 kmh 29.69 in1005.4 mb - 0.11 in2.8 mm 0.11 in2.8 mm
07:30 AM 58.6°F14.8°C 57.5°F14.2°C 96% Calm Calm 1.2 mph1.9 kmh 29.68 in1005.1 mb - 0.18 in4.6 mm 0.24 in6.1 mm
07:40 AM 58.7°F14.8°C 57.9°F14.4°C 97% Calm Calm 1.2 mph1.9 kmh 29.67 in1004.7 mb - 0.00 in0.0 mm 0.24 in6.1 mm
07:50 AM 59.2°F15.1°C 58.4°F14.7°C 97% 1.2 mph NE1.9 kmh NE 5.8 mph9.3 kmh 29.67 in1004.7 mb - 0.00 in0.0 mm 0.24 in6.1 mm
08:00 AM 59.7°F15.4°C 58.8°F14.9°C 97% Calm Calm 1.2 mph1.9 kmh 29.65 in1004.1 mb - 0.00 in0.0 mm 0.24 in6.1 mm
08:10 AM 60.3°F15.7°C 59.5°F15.3°C 97% Calm Calm -- 29.64 in1003.7 mb - 0.00 in0.0 mm 0.24 in6.1 mm
08:20 AM 60.6°F15.9°C 59.8°F15.4°C 97% Calm Calm -- 29.65 in1004.1 mb - 0.00 in0.0 mm 0.24 in6.1 mm
08:30 AM 61.3°F16.3°C 60.4°F15.8°C 97% Calm Calm -- 29.66 in1004.4 mb - 0.00 in0.0 mm 0.24 in6.1 mm
08:40 AM 61.4°F16.3°C 60.5°F15.8°C 97% Calm Calm -- 29.66 in1004.4 mb - 0.00 in0.0 mm 0.24 in6.1 mm
08:50 AM 61.4°F16.3°C 60.5°F15.8°C 97% Calm Calm 2.3 mph3.7 kmh 29.65 in1004.1 mb - 0.00 in0.0 mm 0.24 in6.1 mm
09:00 AM 61.1°F16.2°C 60.0°F15.6°C 96% Calm Calm -- 29.66 in1004.4 mb - 0.00 in0.0 mm 0.24 in6.1 mm
09:10 AM 61.1°F16.2°C 60.0°F15.6°C 96% Calm Calm -- 29.65 in1004.1 mb - 0.00 in0.0 mm 0.24 in6.1 mm
09:20 AM 61.0°F16.1°C 59.9°F15.5°C 96% Calm Calm -- 29.67 in1004.7 mb - 0.00 in0.0 mm 0.24 in6.1 mm
09:30 AM 61.2°F16.2°C 60.3°F15.7°C 97% 1.2 mph SE1.9 kmh SE 3.5 mph5.6 kmh 29.68 in1005.1 mb - 0.00 in0.0 mm 0.24 in6.1 mm
09:40 AM 61.5°F16.4°C 60.6°F15.9°C 97% Calm Calm 2.3 mph3.7 kmh 29.68 in1005.1 mb - 0.00 in0.0 mm 0.24 in6.1 mm
09:50 AM 61.4°F16.3°C 60.2°F15.7°C 96% Calm Calm -- 29.69 in1005.4 mb - 0.00 in0.0 mm 0.24 in6.1 mm
10:00 AM 61.3°F16.3°C 60.2°F15.7°C 96% Calm Calm -- 29.69 in1005.4 mb - 0.00 in0.0 mm 0.24 in6.1 mm
10:10 AM 61.8°F16.6°C 60.9°F16.1°C 97% 1.2 mph E1.9 kmh E 5.8 mph9.3 kmh 29.69 in1005.4 mb - 0.00 in0.0 mm 0.24 in6.1 mm
10:20 AM 62.8°F17.1°C 61.9°F16.6°C 97% Calm Calm -- 29.69 in1005.4 mb - 0.00 in0.0 mm 0.24 in6.1 mm
10:30 AM 62.3°F16.8°C 60.8°F16.0°C 95% Calm Calm 1.2 mph1.9 kmh 29.68 in1005.1 mb - 0.00 in0.0 mm 0.24 in6.1 mm
10:40 AM 62.5°F16.9°C 61.4°F16.3°C 96% Calm Calm -- 29.68 in1005.1 mb - 0.00 in0.0 mm 0.24 in6.1 mm
10:50 AM 63.2°F17.3°C 62.0°F16.7°C 96% 1.2 mph W1.9 kmh W 4.6 mph7.4 kmh 29.68 in1005.1 mb - 0.00 in0.0 mm 0.24 in6.1 mm
11:00 AM 63.6°F17.6°C 62.1°F16.7°C 95% Calm Calm -- 29.67 in1004.7 mb - 0.00 in0.0 mm 0.24 in6.1 mm
11:10 AM 64.2°F17.9°C 62.1°F16.7°C 93% 1.2 mph N1.9 kmh N 1.2 mph1.9 kmh 29.67 in1004.7 mb - 0.00 in0.0 mm 0.24 in6.1 mm
11:20 AM 65.0°F18.3°C 62.6°F17.0°C 92% 2.3 mph WSW3.7 kmh WSW 3.5 mph5.6 kmh 29.67 in1004.7 mb - 0.00 in0.0 mm 0.24 in6.1 mm
11:30 AM 66.1°F18.9°C 63.7°F17.6°C 92% 1.2 mph WNW1.9 kmh WNW 3.5 mph5.6 kmh 29.67 in1004.7 mb - 0.00 in0.0 mm 0.24 in6.1 mm
11:40 AM 67.1°F19.5°C 62.8°F17.1°C 86% 2.3 mph NW3.7 kmh NW 3.5 mph5.6 kmh 29.67 in1004.7 mb - 0.00 in0.0 mm 0.24 in6.1 mm
11:50 AM 67.2°F19.6°C 62.5°F16.9°C 85% 2.3 mph W3.7 kmh W 4.6 mph7.4 kmh 29.68 in1005.1 mb - 0.00 in0.0 mm 0.24 in6.1 mm
12:00 PM 66.0°F18.9°C 61.4°F16.3°C 85% 1.2 mph SW1.9 kmh SW 6.9 mph11.1 kmh 29.70 in1005.8 mb - 0.00 in0.0 mm 0.24 in6.1 mm
12:10 PM 64.8°F18.2°C 60.5°F15.8°C 86% 3.5 mph E5.6 kmh E 11.5 mph18.5 kmh 29.71 in1006.1 mb - 0.00 in0.0 mm 0.24 in6.1 mm
12:20 PM 63.1°F17.3°C 59.5°F15.3°C 88% 3.5 mph N5.6 kmh N 4.6 mph7.4 kmh 29.72 in1006.4 mb - 0.00 in0.0 mm 0.24 in6.1 mm
12:30 PM 62.9°F17.2°C 58.9°F14.9°C 87% 5.8 mph N9.3 kmh N 12.7 mph20.4 kmh 29.73 in1006.8 mb - 0.00 in0.0 mm 0.24 in6.1 mm
12:40 PM 62.4°F16.9°C 58.1°F14.5°C 86% 3.5 mph N5.6 kmh N 11.5 mph18.5 kmh 29.75 in1007.5 mb - 0.00 in0.0 mm 0.24 in6.1 mm
12:50 PM 62.0°F16.7°C 58.1°F14.5°C 87% 3.5 mph 5.6 kmh 4.6 mph7.4 kmh 29.75 in1007.5 mb - 0.00 in0.0 mm 0.24 in6.1 mm
01:00 PM 62.0°F16.7°C 58.1°F14.5°C 87% 2.3 mph NNE3.7 kmh NNE 3.5 mph5.6 kmh 29.75 in1007.5 mb - 0.00 in0.0 mm 0.24 in6.1 mm
01:10 PM 61.4°F16.3°C 57.2°F14.0°C 86% 3.5 mph SSW5.6 kmh SSW 11.5 mph18.5 kmh 29.74 in1007.1 mb - 0.00 in0.0 mm 0.24 in6.1 mm
01:20 PM 60.5°F15.8°C 56.6°F13.7°C 87% 2.3 mph N3.7 kmh N 3.5 mph5.6 kmh 29.74 in1007.1 mb - 0.00 in0.0 mm 0.24 in6.1 mm
01:30 PM 60.3°F15.7°C 56.8°F13.8°C 88% 1.2 mph NW1.9 kmh NW 3.5 mph5.6 kmh 29.73 in1006.8 mb - 0.00 in0.0 mm 0.24 in6.1 mm
01:40 PM 61.0°F16.1°C 56.8°F13.8°C 86% 2.3 mph N3.7 kmh N 3.5 mph5.6 kmh 29.73 in1006.8 mb - 0.00 in0.0 mm 0.24 in6.1 mm
01:50 PM 61.1°F16.2°C 57.5°F14.2°C 88% 2.3 mph NW3.7 kmh NW 3.5 mph5.6 kmh 29.73 in1006.8 mb - 0.01 in0.3 mm 0.25 in6.4 mm
02:00 PM 61.1°F16.2°C 57.8°F14.3°C 89% 2.3 mph N3.7 kmh N 3.5 mph5.6 kmh 29.76 in1007.8 mb - 0.00 in0.0 mm 0.25 in6.4 mm
02:10 PM 62.1°F16.7°C 57.6°F14.2°C 85% 3.5 mph NNW5.6 kmh NNW 8.1 mph13.0 kmh 29.76 in1007.8 mb - 0.00 in0.0 mm 0.25 in6.4 mm
02:20 PM 62.9°F17.2°C 57.3°F14.1°C 82% 1.2 mph NNE1.9 kmh NNE 3.5 mph5.6 kmh 29.76 in1007.8 mb - 0.00 in0.0 mm 0.25 in6.4 mm
02:30 PM 63.4°F17.4°C 57.2°F14.0°C 80% 1.2 mph NNW1.9 kmh NNW 3.5 mph5.6 kmh 29.76 in1007.8 mb - 0.00 in0.0 mm 0.25 in6.4 mm
02:40 PM 64.0°F17.8°C 57.0°F13.9°C 78% 3.5 mph NW5.6 kmh NW 5.8 mph9.3 kmh 29.76 in1007.8 mb - 0.00 in0.0 mm 0.25 in6.4 mm
02:50 PM 63.8°F17.7°C 56.9°F13.8°C 78% 2.3 mph NNE3.7 kmh NNE 6.9 mph11.1 kmh 29.77 in1008.1 mb - 0.00 in0.0 mm 0.25 in6.4 mm
03:00 PM 63.9°F17.7°C 57.6°F14.2°C 80% 2.3 mph NW3.7 kmh NW 10.4 mph16.7 kmh 29.77 in1008.1 mb - 0.00 in0.0 mm 0.25 in6.4 mm
03:10 PM 64.8°F18.2°C 58.5°F14.7°C 80% 2.3 mph N3.7 kmh N 3.5 mph5.6 kmh 29.76 in1007.8 mb - 0.00 in0.0 mm 0.25 in6.4 mm
03:20 PM 65.7°F18.7°C 59.0°F15.0°C 79% 1.2 mph NW1.9 kmh NW 5.8 mph9.3 kmh 29.77 in1008.1 mb - 0.00 in0.0 mm 0.25 in6.4 mm
03:30 PM 66.0°F18.9°C 59.0°F15.0°C 78% 1.2 mph N1.9 kmh N 2.3 mph3.7 kmh 29.76 in1007.8 mb - 0.00 in0.0 mm 0.25 in6.4 mm
03:40 PM 66.6°F19.2°C 58.8°F14.9°C 76% 1.2 mph NE1.9 kmh NE 2.3 mph3.7 kmh 29.77 in1008.1 mb - 0.00 in0.0 mm 0.25 in6.4 mm
03:50 PM 67.3°F19.6°C 58.8°F14.9°C 74% 2.3 mph N3.7 kmh N 10.4 mph16.7 kmh 29.77 in1008.1 mb - 0.00 in0.0 mm 0.25 in6.4 mm
04:00 PM 67.9°F19.9°C 58.2°F14.6°C 71% 3.5 mph W5.6 kmh W 6.9 mph11.1 kmh 29.77 in1008.1 mb - 0.00 in0.0 mm 0.25 in6.4 mm
04:10 PM 68.6°F20.3°C 57.6°F14.2°C 68% 4.6 mph NNW7.4 kmh NNW 5.8 mph9.3 kmh 29.77 in1008.1 mb - 0.00 in0.0 mm 0.25 in6.4 mm
04:20 PM 69.0°F20.6°C 57.6°F14.2°C 67% 2.3 mph N3.7 kmh N 3.5 mph5.6 kmh 29.77 in1008.1 mb - 0.00 in0.0 mm 0.25 in6.4 mm
04:30 PM 69.0°F20.6°C 57.6°F14.2°C 67% 3.5 mph NW5.6 kmh NW 5.8 mph9.3 kmh 29.77 in1008.1 mb - 0.00 in0.0 mm 0.25 in6.4 mm
04:40 PM 69.2°F20.7°C 57.4°F14.1°C 66% 2.3 mph NW3.7 kmh NW 6.9 mph11.1 kmh 29.78 in1008.5 mb - 0.00 in0.0 mm 0.25 in6.4 mm
04:50 PM 69.2°F20.7°C 57.4°F14.1°C 66% 1.2 mph NNE1.9 kmh NNE 3.5 mph5.6 kmh 29.78 in1008.5 mb - 0.00 in0.0 mm 0.25 in6.4 mm
05:00 PM 69.1°F20.6°C 56.8°F13.8°C 65% 2.3 mph N3.7 kmh N 3.5 mph5.6 kmh 29.78 in1008.5 mb - 0.00 in0.0 mm 0.25 in6.4 mm
05:10 PM 68.8°F20.4°C 57.0°F13.9°C 66% 1.2 mph N1.9 kmh N 2.3 mph3.7 kmh 29.78 in1008.5 mb - 0.00 in0.0 mm 0.25 in6.4 mm
05:20 PM 68.3°F20.2°C 55.7°F13.2°C 64% 2.3 mph WNW3.7 kmh WNW 10.4 mph16.7 kmh 29.78 in1008.5 mb - 0.00 in0.0 mm 0.25 in6.4 mm
05:30 PM 67.8°F19.9°C 55.6°F13.1°C 65% 1.2 mph N1.9 kmh N 3.5 mph5.6 kmh 29.78 in1008.5 mb - 0.00 in0.0 mm 0.25 in6.4 mm
05:40 PM 67.3°F19.6°C 55.1°F12.8°C 65% 3.5 mph NW5.6 kmh NW 8.1 mph13.0 kmh 29.79 in1008.8 mb - 0.00 in0.0 mm 0.25 in6.4 mm
05:50 PM 66.8°F19.3°C 55.5°F13.1°C 67% 1.2 mph N1.9 kmh N 5.8 mph9.3 kmh 29.79 in1008.8 mb - 0.00 in0.0 mm 0.25 in6.4 mm
06:00 PM 66.3°F19.1°C 55.0°F12.8°C 67% 2.3 mph NW3.7 kmh NW 3.5 mph5.6 kmh 29.79 in1008.8 mb - 0.00 in0.0 mm 0.25 in6.4 mm
06:10 PM 66.2°F19.0°C 55.3°F12.9°C 68% 1.2 mph WSW1.9 kmh WSW 3.5 mph5.6 kmh 29.79 in1008.8 mb - 0.00 in0.0 mm 0.25 in6.4 mm
06:20 PM 66.1°F18.9°C 54.4°F12.4°C 66% 2.3 mph N3.7 kmh N 5.8 mph9.3 kmh 29.79 in1008.8 mb - 0.00 in0.0 mm 0.25 in6.4 mm
06:30 PM 66.1°F18.9°C 55.2°F12.9°C 68% 2.3 mph NNW3.7 kmh NNW 6.9 mph11.1 kmh 29.80 in1009.1 mb - 0.00 in0.0 mm 0.25 in6.4 mm
06:40 PM 66.0°F18.9°C 54.7°F12.6°C 67% 1.2 mph W1.9 kmh W 2.3 mph3.7 kmh 29.80 in1009.1 mb - 0.00 in0.0 mm 0.25 in6.4 mm
06:50 PM 65.7°F18.7°C 55.2°F12.9°C 69% 1.2 mph NW1.9 kmh NW 3.5 mph5.6 kmh 29.80 in1009.1 mb - 0.00 in0.0 mm 0.25 in6.4 mm
07:00 PM 65.4°F18.6°C 54.6°F12.6°C 68% 1.2 mph NE1.9 kmh NE 3.5 mph5.6 kmh 29.80 in1009.1 mb - 0.00 in0.0 mm 0.25 in6.4 mm
07:10 PM 64.7°F18.2°C 55.4°F13.0°C 72% 1.2 mph N1.9 kmh N 1.2 mph1.9 kmh 29.80 in1009.1 mb - 0.00 in0.0 mm 0.25 in6.4 mm
07:20 PM 63.8°F17.7°C 55.0°F12.8°C 73% 1.2 mph N1.9 kmh N 2.3 mph3.7 kmh 29.80 in1009.1 mb - 0.00 in0.0 mm 0.25 in6.4 mm
07:30 PM 63.0°F17.2°C 54.9°F12.7°C 75% Calm Calm -- 29.80 in1009.1 mb - 0.00 in0.0 mm 0.25 in6.4 mm
07:40 PM 62.7°F17.1°C 54.7°F12.6°C 75% 1.2 mph W1.9 kmh W 3.5 mph5.6 kmh 29.81 in1009.5 mb - 0.00 in0.0 mm 0.25 in6.4 mm
07:50 PM 62.4°F16.9°C 54.4°F12.4°C 75% 1.2 mph SSW1.9 kmh SSW 2.3 mph3.7 kmh 29.81 in1009.5 mb - 0.00 in0.0 mm 0.25 in6.4 mm
08:00 PM 62.2°F16.8°C 54.5°F12.5°C 76% Calm Calm 2.3 mph3.7 kmh 29.81 in1009.5 mb - 0.00 in0.0 mm 0.25 in6.4 mm
08:10 PM 62.2°F16.8°C 55.3°F12.9°C 78% 1.2 mph NNW1.9 kmh NNW 2.3 mph3.7 kmh 29.82 in1009.8 mb - 0.00 in0.0 mm 0.25 in6.4 mm
08:20 PM 62.2°F16.8°C 55.3°F12.9°C 78% 1.2 mph NE1.9 kmh NE 3.5 mph5.6 kmh 29.81 in1009.5 mb - 0.00 in0.0 mm 0.25 in6.4 mm
08:30 PM 62.4°F16.9°C 55.8°F13.2°C 79% 1.2 mph W1.9 kmh W 2.3 mph3.7 kmh 29.82 in1009.8 mb - 0.00 in0.0 mm 0.25 in6.4 mm
08:40 PM 62.4°F16.9°C 55.8°F13.2°C 79% Calm Calm 1.2 mph1.9 kmh 29.81 in1009.5 mb - 0.00 in0.0 mm 0.25 in6.4 mm
08:50 PM 62.1°F16.7°C 54.8°F12.7°C 77% Calm Calm 1.2 mph1.9 kmh 29.81 in1009.5 mb - 0.00 in0.0 mm 0.25 in6.4 mm
09:00 PM 61.5°F16.4°C 54.6°F12.6°C 78% Calm Calm 1.2 mph1.9 kmh 29.82 in1009.8 mb - 0.00 in0.0 mm 0.25 in6.4 mm
09:10 PM 61.1°F16.2°C 54.5°F12.5°C 79% 1.2 mph S1.9 kmh S 3.5 mph5.6 kmh 29.82 in1009.8 mb - 0.00 in0.0 mm 0.25 in6.4 mm
09:20 PM 60.9°F16.1°C 54.4°F12.4°C 79% 1.2 mph SSE1.9 kmh SSE 1.2 mph1.9 kmh 29.82 in1009.8 mb - 0.00 in0.0 mm 0.25 in6.4 mm
09:30 PM 60.8°F16.0°C 54.6°F12.6°C 80% Calm Calm 1.2 mph1.9 kmh 29.82 in1009.8 mb - 0.00 in0.0 mm 0.25 in6.4 mm
09:40 PM 60.6°F15.9°C 54.4°F12.4°C 80% Calm Calm -- 29.82 in1009.8 mb - 0.00 in0.0 mm 0.25 in6.4 mm
09:50 PM 60.3°F15.7°C 54.4°F12.4°C 81% Calm Calm -- 29.83 in1010.2 mb - 0.00 in0.0 mm 0.25 in6.4 mm
10:00 PM 59.9°F15.5°C 54.4°F12.4°C 82% Calm Calm -- 29.83 in1010.2 mb - 0.00 in0.0 mm 0.25 in6.4 mm
10:10 PM 59.6°F15.3°C 54.4°F12.4°C 83% Calm Calm -- 29.83 in1010.2 mb - 0.00 in0.0 mm 0.25 in6.4 mm
10:20 PM 59.2°F15.1°C 54.4°F12.4°C 84% 1.2 mph ESE1.9 kmh ESE 2.3 mph3.7 kmh 29.84 in1010.5 mb - 0.00 in0.0 mm 0.25 in6.4 mm
10:30 PM 58.8°F14.9°C 53.7°F12.1°C 83% 1.2 mph SE1.9 kmh SE 3.5 mph5.6 kmh 29.84 in1010.5 mb - 0.00 in0.0 mm 0.25 in6.4 mm
10:40 PM 58.6°F14.8°C 53.5°F11.9°C 83% Calm Calm -- 29.84 in1010.5 mb - 0.00 in0.0 mm 0.25 in6.4 mm
10:50 PM 58.4°F14.7°C 53.6°F12.0°C 84% Calm Calm -- 29.84 in1010.5 mb - 0.00 in0.0 mm 0.25 in6.4 mm
11:00 PM 58.2°F14.6°C 53.7°F12.1°C 85% Calm Calm -- 29.85 in1010.8 mb - 0.00 in0.0 mm 0.25 in6.4 mm
11:10 PM 58.0°F14.4°C 53.8°F12.1°C 86% Calm Calm -- 29.85 in1010.8 mb - 0.00 in0.0 mm 0.25 in6.4 mm
11:20 PM 57.6°F14.2°C 53.4°F11.9°C 86% Calm Calm -- 29.85 in1010.8 mb - 0.00 in0.0 mm 0.25 in6.4 mm
11:30 PM 57.1°F13.9°C 52.9°F11.6°C 86% Calm Calm -- 29.85 in1010.8 mb - 0.00 in0.0 mm 0.25 in6.4 mm
11:40 PM 56.7°F13.7°C 52.6°F11.4°C 86% 1.2 mph SSE1.9 kmh SSE 2.3 mph3.7 kmh 29.85 in1010.8 mb - 0.00 in0.0 mm 0.25 in6.4 mm
11:50 PM 56.6°F13.7°C 52.5°F11.4°C 86% Calm Calm -- 29.85 in1010.8 mb - 0.00 in0.0 mm 0.25 in6.4 mm